Time;durP1;ratioP1;P1;durP2;ratioP2;P2;SDS_P1;SDS_P2;PMS_P1;PMS_P2;Temp;Humidity;BMP_temperature;BMP_pressure;BME280_temperature;BME280_humidity;BME280_pressure;Samples;Min_cycle;Max_cycle;Signal;HPM_P1;HPM_P2
2023/06/14 00:00:17;;;;;;;10.50;5.65;;;25.20;70.00;;;;;;5033494;28;20037;-67
2023/06/14 00:02:43;;;;;;;8.57;5.20;;;25.20;70.20;;;;;;5033783;28;20022;-67
2023/06/14 00:05:08;;;;;;;9.35;5.70;;;25.20;70.30;;;;;;5033360;28;20025;-66
2023/06/14 00:07:42;;;;;;;9.88;5.45;;;25.20;70.20;;;;;;5033336;28;20044;-66
2023/06/14 00:10:08;;;;;;;6.63;5.65;;;25.10;70.00;;;;;;5033056;28;20478;-66
2023/06/14 00:12:35;;;;;;;11.60;5.70;;;25.10;70.00;;;;;;5033472;28;20026;-66
2023/06/14 00:15:03;;;;;;;6.70;5.35;;;25.10;69.90;;;;;;5033332;28;20061;-67
2023/06/14 00:17:30;;;;;;;7.25;5.45;;;25.10;70.10;;;;;;5033354;28;20458;-67
2023/06/14 00:19:56;;;;;;;11.65;5.68;;;25.10;69.90;;;;;;5033307;28;20052;-67
2023/06/14 00:22:24;;;;;;;10.73;5.57;;;25.00;70.50;;;;;;5033074;28;20021;-67
2023/06/14 00:24:50;;;;;;;6.18;5.57;;;25.00;69.80;;;;;;5032157;28;20025;-66
2023/06/14 00:27:16;;;;;;;11.55;5.22;;;25.00;69.90;;;;;;5032986;28;20014;-67
2023/06/14 00:29:41;;;;;;;6.20;5.13;;;25.00;69.70;;;;;;5033148;28;20052;-66
2023/06/14 00:32:07;;;;;;;7.38;6.00;;;25.00;69.60;;;;;;5033365;28;20026;-67
2023/06/14 00:34:33;;;;;;;10.55;5.28;;;24.90;69.50;;;;;;5033062;28;20040;-66
2023/06/14 00:36:59;;;;;;;15.68;5.57;;;24.90;69.50;;;;;;5032578;28;20029;-67
2023/06/14 00:39:25;;;;;;;9.48;5.97;;;24.90;69.40;;;;;;5013998;28;20117;-67
2023/06/14 00:41:50;;;;;;;11.82;5.60;;;24.80;69.30;;;;;;5033177;28;20113;-67
2023/06/14 00:44:17;;;;;;;10.02;5.90;;;24.80;69.30;;;;;;5033280;28;20017;-66
2023/06/14 00:46:43;;;;;;;9.85;5.65;;;24.80;69.10;;;;;;5033006;28;20056;-66
2023/06/14 00:49:10;;;;;;;7.00;5.93;;;24.80;69.00;;;;;;5033231;28;20028;-67
2023/06/14 00:51:37;;;;;;;7.05;5.57;;;24.70;68.80;;;;;;5032745;28;20025;-67
2023/06/14 00:54:03;;;;;;;9.30;5.93;;;24.70;68.70;;;;;;5015361;28;20017;-66
2023/06/14 00:56:29;;;;;;;7.70;5.53;;;24.70;68.90;;;;;;5036400;28;20493;-67
2023/06/14 00:58:56;;;;;;;8.45;5.97;;;24.70;69.00;;;;;;5037174;28;20021;-66
2023/06/14 01:01:21;;;;;;;9.30;6.03;;;24.60;68.90;;;;;;5036781;28;20030;-66
2023/06/14 01:03:47;;;;;;;7.93;5.95;;;24.70;68.60;;;;;;5037023;28;20067;-69
2023/06/14 01:06:30;;;;;;;8.95;5.63;;;24.60;68.60;;;;;;5036679;28;20386;-67
2023/06/14 01:09:20;;;;;;;8.38;5.93;;;24.60;69.00;;;;;;5036869;28;20037;-67
2023/06/14 01:12:03;;;;;;;8.80;5.82;;;24.50;68.50;;;;;;5036738;28;20040;-66
2023/06/14 01:14:31;;;;;;;11.02;5.63;;;24.50;68.70;;;;;;5036988;28;20033;-67
2023/06/14 01:17:00;;;;;;;10.65;5.80;;;24.50;68.60;;;;;;5036755;28;20075;-66
2023/06/14 01:19:27;;;;;;;10.52;6.00;;;24.50;68.40;;;;;;5036226;28;20022;-67
2023/06/14 01:21:55;;;;;;;9.10;5.68;;;24.40;68.30;;;;;;5036739;28;20026;-66
2023/06/14 01:24:25;;;;;;;10.43;5.55;;;24.40;68.60;;;;;;5036584;28;20025;-66
2023/06/14 01:26:55;;;;;;;8.88;5.93;;;24.40;68.60;;;;;;5036515;28;20038;-66
2023/06/14 01:29:23;;;;;;;6.85;6.13;;;24.40;68.10;;;;;;5036654;28;20029;-66
2023/06/14 01:31:50;;;;;;;8.02;5.95;;;24.40;68.40;;;;;;5036317;28;20025;-66
2023/06/14 01:34:15;;;;;;;8.98;6.18;;;24.30;67.90;;;;;;5036252;28;20411;-66
2023/06/14 01:36:43;;;;;;;7.38;5.38;;;24.30;68.00;;;;;;5036324;28;20555;-66
2023/06/14 01:39:13;;;;;;;8.02;5.38;;;24.30;68.10;;;;;;5036342;28;20029;-66
2023/06/14 01:41:40;;;;;;;10.13;5.93;;;24.30;68.10;;;;;;5036002;28;20041;-66
2023/06/14 01:44:06;;;;;;;8.90;5.68;;;24.20;67.90;;;;;;5036446;28;20017;-67
2023/06/14 01:46:32;;;;;;;7.95;5.35;;;24.20;67.70;;;;;;5036088;28;20441;-66
2023/06/14 01:48:57;;;;;;;6.30;5.70;;;24.20;68.20;;;;;;5035951;28;20022;-66
2023/06/14 01:51:23;;;;;;;10.85;6.22;;;24.10;67.90;;;;;;5035843;28;20051;-66
2023/06/14 01:53:48;;;;;;;10.30;5.47;;;24.10;67.60;;;;;;5036016;28;20026;-66
2023/06/14 01:56:14;;;;;;;8.48;5.55;;;24.10;67.40;;;;;;5036076;28;20026;-66
2023/06/14 01:58:40;;;;;;;7.57;5.38;;;24.10;67.00;;;;;;5035863;28;20028;-67
2023/06/14 02:01:06;;;;;;;6.45;4.85;;;24.10;66.80;;;;;;5036023;28;20029;-67
2023/06/14 02:03:32;;;;;;;7.35;5.63;;;24.10;66.40;;;;;;5035482;28;20018;-67
2023/06/14 02:05:58;;;;;;;6.30;5.70;;;24.10;66.10;;;;;;5035804;28;20029;-67
2023/06/14 02:08:24;;;;;;;7.47;5.07;;;24.10;65.80;;;;;;5035506;28;20057;-66
2023/06/14 02:10:49;;;;;;;6.15;5.10;;;24.00;65.50;;;;;;5035714;28;20034;-67
2023/06/14 02:13:15;;;;;;;7.53;5.50;;;24.00;65.20;;;;;;5035701;28;20108;-66
2023/06/14 02:15:43;;;;;;;6.43;5.75;;;24.00;65.10;;;;;;5035664;28;20029;-66
2023/06/14 02:18:09;;;;;;;5.70;4.97;;;24.00;64.60;;;;;;5035485;28;20061;-67
2023/06/14 02:20:35;;;;;;;8.32;5.15;;;24.00;64.50;;;;;;5035373;28;20394;-67
2023/06/14 02:23:01;;;;;;;6.65;5.03;;;24.00;64.20;;;;;;5035672;28;20514;-66
2023/06/14 02:25:27;;;;;;;9.00;4.78;;;23.90;63.90;;;;;;5035601;28;20024;-67
2023/06/14 02:27:54;;;;;;;9.05;5.20;;;23.90;63.70;;;;;;5035334;28;20021;-67
2023/06/14 02:30:20;;;;;;;6.72;5.15;;;23.90;63.50;;;;;;5035430;28;20370;-66
2023/06/14 02:32:48;;;;;;;10.07;5.03;;;23.90;63.30;;;;;;5034985;28;20044;-66
2023/06/14 02:35:14;;;;;;;11.05;4.75;;;23.80;62.90;;;;;;5035346;28;20084;-66
2023/06/14 02:37:40;;;;;;;7.45;4.82;;;23.80;62.70;;;;;;5035330;28;20037;-66
2023/06/14 02:40:08;;;;;;;6.93;4.88;;;23.80;62.50;;;;;;5035271;28;20065;-66
2023/06/14 02:42:34;;;;;;;8.13;4.63;;;23.80;62.30;;;;;;5035124;28;20148;-66
2023/06/14 02:45:00;;;;;;;8.32;4.00;;;23.70;62.00;;;;;;5035204;28;20056;-66
2023/06/14 02:47:25;;;;;;;4.82;4.35;;;23.70;62.00;;;;;;5034709;28;20024;-66
2023/06/14 02:49:51;;;;;;;5.07;4.60;;;23.80;61.80;;;;;;5035033;28;20033;-67
2023/06/14 02:52:17;;;;;;;5.97;4.22;;;23.70;61.70;;;;;;5035128;28;20112;-66
2023/06/14 02:54:42;;;;;;;5.55;4.30;;;23.70;61.50;;;;;;5034947;28;20039;-66
2023/06/14 02:57:08;;;;;;;5.65;4.22;;;23.70;61.40;;;;;;5035073;28;20466;-66
2023/06/14 02:59:35;;;;;;;6.68;4.93;;;23.70;61.30;;;;;;5034596;28;20032;-67
2023/06/14 03:02:00;;;;;;;6.65;4.47;;;23.60;61.20;;;;;;5034503;28;20021;-66
2023/06/14 03:04:26;;;;;;;5.85;4.80;;;23.60;61.10;;;;;;5034600;28;20094;-66
2023/06/14 03:06:53;;;;;;;7.28;4.43;;;23.60;61.10;;;;;;5034892;28;20021;-67
2023/06/14 03:09:19;;;;;;;7.20;4.78;;;23.60;60.90;;;;;;5034529;28;20034;-66
2023/06/14 03:11:45;;;;;;;5.60;4.03;;;23.50;61.00;;;;;;5034846;28;20092;-66
2023/06/14 03:14:11;;;;;;;6.53;4.40;;;23.50;60.90;;;;;;5034500;28;20026;-67
2023/06/14 03:16:37;;;;;;;4.78;4.20;;;23.50;60.80;;;;;;5034130;28;20521;-66
2023/06/14 03:19:02;;;;;;;9.07;4.72;;;23.40;60.40;;;;;;5033812;28;20029;-66
2023/06/14 03:21:28;;;;;;;4.78;3.88;;;23.50;60.30;;;;;;5034468;28;20645;-66
2023/06/14 03:23:54;;;;;;;7.63;4.47;;;23.40;60.10;;;;;;5034375;28;20025;-67
2023/06/14 03:26:20;;;;;;;9.27;4.28;;;23.40;60.10;;;;;;5034450;28;20044;-66
2023/06/14 03:28:46;;;;;;;6.35;4.30;;;23.40;60.10;;;;;;5034092;28;20497;-67
2023/06/14 03:31:12;;;;;;;5.85;3.90;;;23.40;60.10;;;;;;5033952;28;20091;-66
2023/06/14 03:33:39;;;;;;;6.68;4.05;;;23.40;60.30;;;;;;5034315;28;20033;-66
2023/06/14 03:36:05;;;;;;;10.07;4.13;;;23.40;60.30;;;;;;5034283;28;20025;-66
2023/06/14 03:38:30;;;;;;;7.60;4.03;;;23.40;60.30;;;;;;5034100;28;20021;-66
2023/06/14 03:40:56;;;;;;;10.98;4.63;;;23.30;60.40;;;;;;5034014;28;20546;-67
2023/06/14 03:43:22;;;;;;;6.93;4.53;;;23.30;60.50;;;;;;5033942;28;20542;-66
2023/06/14 03:45:47;;;;;;;6.35;4.32;;;23.30;60.50;;;;;;5033667;28;20029;-67
2023/06/14 03:48:13;;;;;;;6.20;4.32;;;23.20;60.50;;;;;;5034068;28;20093;-66
2023/06/14 03:50:39;;;;;;;10.63;4.72;;;23.20;60.60;;;;;;5033586;28;20033;-67
2023/06/14 03:53:05;;;;;;;8.55;4.35;;;23.30;60.70;;;;;;5034063;28;20013;-67
2023/06/14 03:55:33;;;;;;;9.02;3.85;;;23.20;60.60;;;;;;5033583;28;20047;-66
2023/06/14 03:57:59;;;;;;;7.18;4.22;;;23.20;60.60;;;;;;5033867;28;20508;-66
2023/06/14 04:00:25;;;;;;;8.00;4.43;;;23.20;60.60;;;;;;5033154;28;20038;-66
2023/06/14 04:02:50;;;;;;;8.98;4.03;;;23.20;60.90;;;;;;5033623;28;20087;-66
2023/06/14 04:05:18;;;;;;;9.82;4.70;;;23.10;60.90;;;;;;5033612;28;20103;-66
2023/06/14 04:07:44;;;;;;;7.13;4.70;;;23.10;60.90;;;;;;5033408;28;20029;-66
2023/06/14 04:10:13;;;;;;;8.57;4.28;;;23.10;61.00;;;;;;5033361;28;20029;-66
2023/06/14 04:12:38;;;;;;;9.20;4.15;;;23.10;60.90;;;;;;5033611;28;20048;-71
2023/06/14 04:15:05;;;;;;;8.82;4.70;;;23.10;61.00;;;;;;5033027;28;20493;-67
2023/06/14 04:17:32;;;;;;;8.77;4.57;;;23.10;61.10;;;;;;5033243;28;20429;-66
2023/06/14 04:19:59;;;;;;;7.15;4.65;;;23.00;61.00;;;;;;5033596;28;20060;-67
2023/06/14 04:22:28;;;;;;;9.40;4.90;;;23.00;61.00;;;;;;5033468;28;20021;-66
2023/06/14 04:24:56;;;;;;;8.07;4.80;;;23.00;61.00;;;;;;5033370;28;20107;-69
2023/06/14 04:27:25;;;;;;;6.50;4.40;;;23.00;61.00;;;;;;5033359;28;20025;-66
2023/06/14 04:29:56;;;;;;;10.32;4.55;;;23.00;61.00;;;;;;5031903;28;20528;-66
2023/06/14 04:32:38;;;;;;;7.63;4.73;;;23.00;61.10;;;;;;5033401;28;20458;-65
2023/06/14 04:35:08;;;;;;;10.68;5.07;;;23.00;61.30;;;;;;5033343;28;20268;-67
2023/06/14 04:37:34;;;;;;;5.25;4.25;;;23.00;64.10;;;;;;5033198;28;20018;-66
2023/06/14 04:40:00;;;;;;;10.95;3.85;;;23.00;64.80;;;;;;5033198;28;20034;-65
2023/06/14 04:42:30;;;;;;;5.28;3.72;;;23.00;64.90;;;;;;5015186;28;20052;-65
2023/06/14 04:44:56;;;;;;;10.13;4.60;;;23.00;65.00;;;;;;5033024;28;20025;-65
2023/06/14 04:47:24;;;;;;;6.60;4.70;;;23.00;64.70;;;;;;5033238;28;20029;-65
2023/06/14 04:49:53;;;;;;;7.22;4.65;;;23.10;64.80;;;;;;5032794;28;20033;-65
2023/06/14 04:52:20;;;;;;;6.45;4.22;;;23.00;64.80;;;;;;5033165;28;20029;-65
2023/06/14 04:54:46;;;;;;;6.63;4.60;;;23.10;65.00;;;;;;5032874;28;20021;-65
2023/06/14 04:57:13;;;;;;;6.50;4.40;;;23.10;64.90;;;;;;5032603;28;20078;-65
2023/06/14 04:59:39;;;;;;;8.98;4.68;;;23.10;64.90;;;;;;5032861;28;20040;-66
2023/06/14 05:02:06;;;;;;;8.75;4.75;;;23.00;65.10;;;;;;5032748;28;20037;-69
2023/06/14 05:04:32;;;;;;;10.73;4.97;;;23.10;65.10;;;;;;5014989;28;20381;-66
2023/06/14 05:06:57;;;;;;;11.30;4.95;;;23.10;65.00;;;;;;5032632;28;20017;-65
2023/06/14 05:09:23;;;;;;;8.40;4.18;;;23.10;64.90;;;;;;5032674;28;20037;-65
2023/06/14 05:11:50;;;;;;;8.15;4.32;;;23.00;65.00;;;;;;5032595;28;20101;-65
2023/06/14 05:14:16;;;;;;;7.95;4.60;;;23.00;65.10;;;;;;5032759;28;20025;-66
2023/06/14 05:16:42;;;;;;;10.60;5.07;;;23.00;65.40;;;;;;5032718;28;20043;-66
2023/06/14 05:19:10;;;;;;;9.07;4.90;;;23.00;65.10;;;;;;5029508;28;20025;-66
2023/06/14 05:21:37;;;;;;;11.13;4.15;;;23.00;65.30;;;;;;5032004;28;20123;-65
2023/06/14 05:24:03;;;;;;;9.05;4.70;;;23.00;65.40;;;;;;5033025;28;20028;-65
2023/06/14 05:26:28;;;;;;;12.85;4.53;;;23.00;65.60;;;;;;5030525;28;20030;-66
2023/06/14 05:28:57;;;;;;;10.10;4.63;;;23.00;65.30;;;;;;5032551;28;20028;-67
2023/06/14 05:31:24;;;;;;;11.93;4.90;;;23.00;65.70;;;;;;5032023;28;20108;-65
2023/06/14 05:33:50;;;;;;;7.78;4.90;;;23.00;65.80;;;;;;5032604;28;20021;-66
2023/06/14 05:36:15;;;;;;;10.50;4.90;;;23.00;65.80;;;;;;5026024;28;20127;-64
2023/06/14 05:38:41;;;;;;;9.73;4.72;;;23.00;65.60;;;;;;5031172;28;20636;-70
2023/06/14 05:41:06;;;;;;;10.00;5.03;;;23.00;65.80;;;;;;5027486;28;20163;-68
2023/06/14 05:43:32;;;;;;;9.40;4.63;;;23.00;65.30;;;;;;5033533;28;20105;-65
2023/06/14 05:45:58;;;;;;;13.70;5.82;;;23.00;65.20;;;;;;5033478;28;20069;-67
2023/06/14 05:48:23;;;;;;;9.23;5.32;;;23.00;64.40;;;;;;5032008;28;20025;-69
2023/06/14 05:50:49;;;;;;;15.98;5.57;;;23.10;64.40;;;;;;5035421;28;20044;-65
2023/06/14 05:53:15;;;;;;;10.68;5.30;;;23.10;64.00;;;;;;5033659;28;20032;-69
2023/06/14 05:55:40;;;;;;;10.70;5.55;;;23.10;63.90;;;;;;5033901;28;20021;-65
2023/06/14 05:58:06;;;;;;;10.15;5.55;;;23.10;63.90;;;;;;5033904;28;20774;-66
2023/06/14 06:00:31;;;;;;;8.52;5.93;;;23.20;64.00;;;;;;5029978;28;20044;-65
2023/06/14 06:02:57;;;;;;;8.48;5.22;;;23.20;64.30;;;;;;5034584;28;20021;-65
2023/06/14 06:05:23;;;;;;;7.82;5.22;;;23.30;64.50;;;;;;5034458;28;20493;-66
2023/06/14 06:07:49;;;;;;;11.23;5.30;;;23.40;64.20;;;;;;5035367;28;20535;-66
2023/06/14 06:10:15;;;;;;;9.32;5.55;;;23.40;65.30;;;;;;5029654;28;20025;-65
2023/06/14 06:12:42;;;;;;;11.23;4.53;;;23.50;65.60;;;;;;5016976;28;20100;-66
2023/06/14 06:15:11;;;;;;;9.88;5.07;;;23.50;65.90;;;;;;5034604;28;20386;-65
2023/06/14 06:17:37;;;;;;;11.30;5.45;;;23.50;66.00;;;;;;5035089;28;20017;-66
2023/06/14 06:20:05;;;;;;;15.20;5.82;;;23.60;65.80;;;;;;5035230;28;20090;-67
2023/06/14 06:22:31;;;;;;;10.45;5.35;;;23.70;64.10;;;;;;5035200;28;20028;-65
2023/06/14 06:24:56;;;;;;;11.63;5.57;;;23.70;63.80;;;;;;5031401;28;20022;-65
2023/06/14 06:27:22;;;;;;;14.85;5.63;;;23.80;63.90;;;;;;5035154;28;20470;-68
2023/06/14 06:29:48;;;;;;;15.00;5.55;;;23.90;64.10;;;;;;5035412;28;20026;-66
2023/06/14 06:32:17;;;;;;;8.00;5.80;;;23.90;64.30;;;;;;5035062;28;20122;-66
2023/06/14 06:34:43;;;;;;;11.02;5.50;;;24.00;63.80;;;;;;5035094;28;20022;-66
2023/06/14 06:37:08;;;;;;;8.85;5.10;;;24.10;64.30;;;;;;5035201;28;20032;-66
2023/06/14 06:39:34;;;;;;;10.55;5.35;;;24.10;64.20;;;;;;5031875;28;20030;-65
2023/06/14 06:42:00;;;;;;;10.38;5.63;;;24.10;64.40;;;;;;5034434;28;20041;-65
2023/06/14 06:44:25;;;;;;;11.30;5.57;;;24.20;63.80;;;;;;5027933;28;20025;-66
2023/06/14 06:46:51;;;;;;;15.05;5.65;;;24.20;63.70;;;;;;5031997;28;20030;-71
2023/06/14 06:49:17;;;;;;;8.48;4.57;;;24.30;64.00;;;;;;5033038;28;20108;-72
2023/06/14 06:51:43;;;;;;;14.05;5.43;;;24.40;64.40;;;;;;5032624;28;20029;-69
2023/06/14 06:54:09;;;;;;;9.80;4.93;;;24.40;63.60;;;;;;5032039;28;20029;-70
2023/06/14 06:56:35;;;;;;;10.27;4.45;;;24.50;64.20;;;;;;5033382;28;20101;-68
2023/06/14 06:59:01;;;;;;;13.45;5.28;;;24.60;64.70;;;;;;5033178;28;20056;-76
2023/06/14 07:01:28;;;;;;;11.13;4.78;;;24.60;64.60;;;;;;5033124;28;20060;-75
2023/06/14 07:03:57;;;;;;;14.32;4.82;;;24.60;64.40;;;;;;5033103;28;20044;-74
2023/06/14 07:06:26;;;;;;;11.43;5.25;;;24.70;64.60;;;;;;5032893;28;20390;-68
2023/06/14 07:08:52;;;;;;;8.80;5.00;;;24.80;64.10;;;;;;5028042;28;20100;-73
2023/06/14 07:11:18;;;;;;;11.95;4.97;;;24.80;64.20;;;;;;5019094;28;20128;-71
2023/06/14 07:13:43;;;;;;;13.15;5.30;;;24.80;64.10;;;;;;5031188;28;20033;-71
2023/06/14 07:16:09;;;;;;;7.22;4.55;;;24.90;64.30;;;;;;5023200;28;20100;-72
2023/06/14 07:18:35;;;;;;;10.20;4.70;;;24.90;63.80;;;;;;5032718;28;20702;-70
2023/06/14 07:21:01;;;;;;;11.98;5.75;;;25.00;64.20;;;;;;5032729;28;20037;-72
2023/06/14 07:23:26;;;;;;;10.68;4.82;;;25.10;64.30;;;;;;5031937;28;20056;-69
2023/06/14 07:25:52;;;;;;;8.80;4.95;;;25.10;63.80;;;;;;5032181;28;20386;-71
2023/06/14 07:28:18;;;;;;;9.85;4.50;;;25.20;63.50;;;;;;5032563;28;20036;-69
2023/06/14 07:30:44;;;;;;;11.85;4.75;;;25.20;63.50;;;;;;5032662;28;20037;-67
2023/06/14 07:33:11;;;;;;;12.43;5.45;;;25.30;63.90;;;;;;5032132;28;20032;-67
2023/06/14 07:35:37;;;;;;;9.20;4.93;;;25.30;63.60;;;;;;5032315;28;20116;-66
2023/06/14 07:38:02;;;;;;;9.15;4.63;;;25.40;63.10;;;;;;5032125;28;20100;-73
2023/06/14 07:40:28;;;;;;;14.35;5.18;;;25.50;63.70;;;;;;5032592;28;20504;-68
2023/06/14 07:42:54;;;;;;;10.07;5.00;;;25.50;63.50;;;;;;5031840;28;20029;-70
2023/06/14 07:45:20;;;;;;;9.52;4.53;;;25.50;63.90;;;;;;5024480;28;20041;-68
2023/06/14 07:47:46;;;;;;;10.50;5.03;;;25.60;62.80;;;;;;5023977;28;20025;-71
2023/06/14 07:50:12;;;;;;;8.82;4.72;;;25.70;62.50;;;;;;5032253;28;20029;-68
2023/06/14 07:52:38;;;;;;;11.02;4.68;;;25.70;61.30;;;;;;5031577;28;20018;-65
2023/06/14 07:55:04;;;;;;;10.63;5.25;;;25.80;62.00;;;;;;5029783;28;20025;-74
2023/06/14 07:57:30;;;;;;;20.80;5.72;;;25.90;61.20;;;;;;5028874;28;20140;-68
2023/06/14 07:59:56;;;;;;;11.93;5.32;;;26.00;60.90;;;;;;5027114;28;20033;-66
2023/06/14 08:02:21;;;;;;;13.60;5.00;;;26.00;59.60;;;;;;5030328;28;20029;-73
2023/06/14 08:04:48;;;;;;;13.63;5.07;;;26.10;60.30;;;;;;5029667;28;20112;-73
2023/06/14 08:07:14;;;;;;;10.30;4.65;;;26.20;60.70;;;;;;5007366;28;20561;-70
2023/06/14 08:09:40;;;;;;;7.15;4.65;;;26.20;61.10;;;;;;5030397;28;20037;-68
2023/06/14 08:12:12;;;;;;;8.00;4.65;;;26.30;62.00;;;;;;5024312;28;20389;-72
2023/06/14 08:14:39;;;;;;;9.88;4.20;;;26.30;62.00;;;;;;5029762;28;20033;-68
2023/06/14 08:17:05;;;;;;;8.13;4.72;;;26.30;62.70;;;;;;5017271;28;20095;-68
2023/06/14 08:19:31;;;;;;;11.65;5.65;;;26.40;62.80;;;;;;5031375;28;20084;-69
2023/06/14 08:21:57;;;;;;;7.82;4.40;;;26.40;62.30;;;;;;5031221;28;20026;-68
2023/06/14 08:24:26;;;;;;;10.48;5.47;;;26.40;63.00;;;;;;5030534;28;20136;-68
2023/06/14 08:26:53;;;;;;;12.35;5.32;;;26.50;62.80;;;;;;5015394;28;20033;-67
2023/06/14 08:29:19;;;;;;;7.07;4.43;;;26.50;62.30;;;;;;5031136;28;20026;-66
2023/06/14 08:31:45;;;;;;;9.73;6.07;;;26.50;61.50;;;;;;5031592;28;20029;-66
2023/06/14 08:34:11;;;;;;;15.32;5.55;;;26.60;61.80;;;;;;5030911;28;20014;-68
2023/06/14 08:36:36;;;;;;;10.02;4.72;;;26.60;62.60;;;;;;5031189;28;20034;-68
2023/06/14 08:39:02;;;;;;;8.88;5.32;;;26.70;62.80;;;;;;5029583;28;20032;-68
2023/06/14 08:41:29;;;;;;;8.35;5.10;;;26.70;62.90;;;;;;5029534;28;20108;-69
2023/06/14 08:43:55;;;;;;;12.95;6.00;;;26.70;62.80;;;;;;5028979;28;20292;-68
2023/06/14 08:46:22;;;;;;;10.30;5.72;;;26.80;62.60;;;;;;5030767;28;20053;-68
2023/06/14 08:48:52;;;;;;;11.85;5.85;;;26.80;62.30;;;;;;5020601;28;20508;-68
2023/06/14 08:51:23;;;;;;;11.50;5.53;;;26.90;61.30;;;;;;5024371;28;20041;-68
2023/06/14 08:53:57;;;;;;;14.52;5.65;;;26.90;62.10;;;;;;5013738;28;20068;-68
2023/06/14 08:56:26;;;;;;;10.68;5.32;;;27.00;61.50;;;;;;5031985;28;20102;-70
2023/06/14 08:58:52;;;;;;;10.10;5.45;;;27.00;61.80;;;;;;5029049;28;20052;-67
2023/06/14 09:01:19;;;;;;;9.10;5.38;;;27.10;61.20;;;;;;5017858;28;20401;-75
2023/06/14 09:03:45;;;;;;;8.45;5.13;;;27.10;61.90;;;;;;5030930;28;20109;-70
2023/06/14 09:06:13;;;;;;;10.20;5.80;;;27.10;61.80;;;;;;5030495;28;20048;-74
2023/06/14 09:08:47;;;;;;;9.80;4.68;;;27.20;61.60;;;;;;5029732;28;20536;-70
2023/06/14 09:11:14;;;;;;;9.13;5.50;;;27.20;61.70;;;;;;5027273;28;20125;-74
2023/06/14 09:13:40;;;;;;;7.25;5.38;;;27.20;61.30;;;;;;5025500;28;20503;-70
2023/06/14 09:16:06;;;;;;;10.27;4.60;;;27.30;61.30;;;;;;5027935;28;20022;-71
2023/06/14 09:18:41;;;;;;;10.57;4.47;;;27.30;61.90;;;;;;5028468;28;20478;-70
2023/06/14 09:21:11;;;;;;;8.70;4.65;;;27.30;61.70;;;;;;5020004;28;20088;-68
2023/06/14 09:23:38;;;;;;;9.23;4.32;;;27.30;61.00;;;;;;5033590;28;20021;-77
2023/06/14 09:26:11;;;;;;;13.85;4.95;;;27.40;60.80;;;;;;5034539;28;20036;-77
2023/06/14 09:28:43;;;;;;;10.95;4.65;;;27.40;60.50;;;;;;5032753;28;20440;-77
2023/06/14 09:31:11;;;;;;;11.43;4.28;;;27.50;60.50;;;;;;5030146;28;20382;-75
2023/06/14 09:33:37;;;;;;;9.40;5.35;;;27.50;60.00;;;;;;5034089;28;20053;-77
2023/06/14 09:36:10;;;;;;;10.02;4.60;;;27.50;59.40;;;;;;5032462;28;20060;-75
2023/06/14 09:38:36;;;;;;;7.47;5.03;;;27.50;60.00;;;;;;5024731;28;20372;-69
2023/06/14 09:41:03;;;;;;;11.07;4.82;;;27.50;59.40;;;;;;5035443;28;20068;-68
2023/06/14 09:43:29;;;;;;;10.75;5.13;;;27.60;60.20;;;;;;5035309;28;20021;-68
2023/06/14 09:45:55;;;;;;;7.50;5.00;;;27.60;59.60;;;;;;5034805;28;20095;-78
2023/06/14 09:48:21;;;;;;;9.38;4.45;;;27.60;59.70;;;;;;5034299;28;20039;-76
2023/06/14 09:50:49;;;;;;;8.02;4.88;;;27.60;59.30;;;;;;5034183;28;20408;-75
2023/06/14 09:53:15;;;;;;;8.13;5.22;;;27.60;59.30;;;;;;5035320;28;20021;-77
2023/06/14 09:55:42;;;;;;;7.90;4.90;;;27.70;58.10;;;;;;5034358;28;20056;-76
2023/06/14 09:58:09;;;;;;;13.93;4.80;;;27.60;59.20;;;;;;5034740;28;20428;-74
2023/06/14 10:00:38;;;;;;;7.05;4.28;;;27.70;60.00;;;;;;5036020;28;20049;-71
2023/06/14 10:03:20;;;;;;;9.80;4.22;;;27.70;58.10;;;;;;5033835;28;20030;-73
2023/06/14 10:05:50;;;;;;;7.53;4.45;;;27.70;59.00;;;;;;5029514;28;20514;-67
2023/06/14 10:08:25;;;;;;;7.03;4.15;;;27.70;56.90;;;;;;5034079;28;20071;-70
2023/06/14 10:10:51;;;;;;;9.45;4.35;;;27.70;59.40;;;;;;5030849;28;20487;-70
2023/06/14 10:13:16;;;;;;;9.88;4.40;;;27.70;57.10;;;;;;5033167;28;20113;-67
2023/06/14 10:15:52;;;;;;;7.20;4.00;;;27.80;57.00;;;;;;5028265;28;20033;-73
2023/06/14 10:18:47;;;;;;;7.55;4.68;;;27.80;56.60;;;;;;5018815;28;20022;-68
2023/06/14 10:21:18;;;;;;;8.63;4.68;;;27.80;56.70;;;;;;5025511;28;20550;-75
2023/06/14 10:23:47;;;;;;;6.57;3.55;;;27.90;57.40;;;;;;5014378;28;20033;-68
2023/06/14 10:26:30;;;;;;;10.82;4.28;;;27.90;57.90;;;;;;5032464;28;20437;-69
2023/06/14 10:29:16;;;;;;;10.70;4.20;;;27.90;57.10;;;;;;5029096;28;20033;-69
2023/06/14 10:31:47;;;;;;;16.00;3.95;;;27.90;56.70;;;;;;5025926;28;20042;-69
2023/06/14 10:34:25;;;;;;;10.38;4.03;;;27.90;56.40;;;;;;5025880;28;20079;-74
2023/06/14 10:37:13;;;;;;;6.53;4.15;;;27.90;56.20;;;;;;5022332;28;20017;-69
2023/06/14 10:39:41;;;;;;;6.55;4.13;;;27.90;57.50;;;;;;5027093;28;20119;-71
2023/06/14 10:42:07;;;;;;;12.63;4.30;;;27.90;58.60;;;;;;5028814;28;20028;-71
2023/06/14 10:44:42;;;;;;;9.43;4.10;;;27.90;56.80;;;;;;5028191;28;20025;-68
2023/06/14 10:47:11;;;;;;;6.35;4.43;;;27.90;57.30;;;;;;5031511;28;20091;-72
2023/06/14 10:49:45;;;;;;;4.63;3.70;;;27.90;56.20;;;;;;5013060;28;20374;-72
2023/06/14 10:52:18;;;;;;;9.60;3.83;;;28.00;56.60;;;;;;5027282;28;20042;-74
2023/06/14 10:54:59;;;;;;;7.28;4.35;;;28.00;56.80;;;;;;5029376;28;20029;-74
2023/06/14 10:57:25;;;;;;;5.75;3.70;;;27.90;55.90;;;;;;5032311;28;20069;-74
2023/06/14 10:59:51;;;;;;;9.65;3.90;;;27.90;55.30;;;;;;5028948;28;20049;-73
2023/06/14 11:02:27;;;;;;;6.85;3.75;;;27.90;55.40;;;;;;5029269;28;20021;-72
2023/06/14 11:04:53;;;;;;;4.13;3.63;;;28.00;55.70;;;;;;5026521;28;20483;-72
2023/06/14 11:07:46;;;;;;;9.95;3.88;;;27.90;55.70;;;;;;5031843;28;20040;-73
2023/06/14 11:10:38;;;;;;;10.43;3.90;;;28.00;58.00;;;;;;5029146;28;20065;-72
2023/06/14 11:13:04;;;;;;;10.18;4.15;;;28.00;55.80;;;;;;5031668;28;20040;-71
2023/06/14 11:15:30;;;;;;;5.78;3.60;;;27.90;61.20;;;;;;5032276;28;20509;-72
2023/06/14 11:17:57;;;;;;;7.40;4.10;;;27.90;63.40;;;;;;5033045;28;20036;-73
2023/06/14 11:20:27;;;;;;;7.82;3.65;;;27.90;63.40;;;;;;5033584;28;20029;-71
2023/06/14 11:22:53;;;;;;;4.72;3.42;;;27.80;63.40;;;;;;5026249;28;20021;-71
2023/06/14 11:25:19;;;;;;;10.50;3.80;;;27.80;62.70;;;;;;5031479;28;20017;-71
2023/06/14 11:27:45;;;;;;;6.10;3.88;;;27.80;62.60;;;;;;5031890;28;20160;-71
2023/06/14 11:30:13;;;;;;;5.57;3.95;;;27.80;63.90;;;;;;5030243;28;20538;-72
2023/06/14 11:32:39;;;;;;;7.53;3.42;;;27.80;63.70;;;;;;5031707;28;20021;-70
2023/06/14 11:35:05;;;;;;;5.50;3.72;;;27.80;62.40;;;;;;5030529;28;20032;-69
2023/06/14 11:37:34;;;;;;;6.65;3.97;;;27.70;63.00;;;;;;5032133;28;20017;-70
2023/06/14 11:40:01;;;;;;;8.13;3.60;;;27.70;63.60;;;;;;5021633;28;20533;-70
2023/06/14 11:42:28;;;;;;;13.18;4.10;;;27.70;62.80;;;;;;5025769;28;20034;-70
2023/06/14 11:44:54;;;;;;;6.28;3.53;;;27.70;59.20;;;;;;5025150;28;20460;-70
2023/06/14 11:47:20;;;;;;;14.27;3.78;;;27.60;62.60;;;;;;5022391;28;20429;-69
2023/06/14 11:49:47;;;;;;;6.80;3.63;;;27.60;60.00;;;;;;5030758;28;20025;-68
2023/06/14 11:52:13;;;;;;;8.93;4.03;;;27.70;62.20;;;;;;5024172;28;20475;-68
2023/06/14 11:54:42;;;;;;;7.53;3.65;;;27.70;62.30;;;;;;5029436;28;20029;-68
2023/06/14 11:57:08;;;;;;;9.05;3.75;;;27.60;60.50;;;;;;5029705;28;20079;-66
2023/06/14 11:59:39;;;;;;;9.95;3.45;;;27.60;55.50;;;;;;5029042;28;20448;-66
2023/06/14 12:02:06;;;;;;;5.85;3.10;;;27.70;55.60;;;;;;5021455;28;20108;-66
2023/06/14 12:04:32;;;;;;;5.50;3.38;;;27.70;54.20;;;;;;5009182;28;20029;-68
2023/06/14 12:07:14;;;;;;;7.40;3.53;;;27.70;56.70;;;;;;5025352;28;20055;-70
2023/06/14 12:09:43;;;;;;;6.15;3.58;;;27.70;55.80;;;;;;5026717;28;20632;-66
2023/06/14 12:12:09;;;;;;;8.93;3.25;;;27.70;54.00;;;;;;5017083;28;20037;-67
2023/06/14 12:14:34;;;;;;;9.00;3.42;;;27.80;54.20;;;;;;5028810;28;20071;-67
2023/06/14 12:17:07;;;;;;;9.70;3.50;;;27.80;55.20;;;;;;5029911;28;20108;-67
2023/06/14 12:19:41;;;;;;;6.65;3.10;;;27.80;53.80;;;;;;5030292;28;20038;-68
2023/06/14 12:22:09;;;;;;;5.32;3.20;;;27.80;56.10;;;;;;5027277;28;20041;-69
2023/06/14 12:24:35;;;;;;;6.13;2.97;;;27.80;56.00;;;;;;5026945;28;20036;-68
2023/06/14 12:27:02;;;;;;;7.50;3.20;;;27.80;53.70;;;;;;5020729;28;20030;-67
2023/06/14 12:29:29;;;;;;;5.45;3.17;;;27.80;55.10;;;;;;5028315;28;20378;-69
2023/06/14 12:31:56;;;;;;;5.32;2.80;;;27.80;55.80;;;;;;5023241;28;20064;-70
2023/06/14 12:34:23;;;;;;;7.13;3.10;;;27.80;53.50;;;;;;5019975;28;20049;-70
2023/06/14 12:36:50;;;;;;;7.47;2.88;;;27.80;53.10;;;;;;5018031;28;20490;-71
2023/06/14 12:39:16;;;;;;;13.02;3.33;;;27.80;56.10;;;;;;5026778;28;20022;-70
2023/06/14 12:41:41;;;;;;;10.13;3.55;;;27.80;53.70;;;;;;5014471;28;20048;-70
2023/06/14 12:44:07;;;;;;;6.75;3.10;;;27.80;54.10;;;;;;5022900;28;20057;-69